sensor_id;sensor_type;location;lat;lon;timestamp;pressure;altitude;pressure_sealevel;temperature;humidity
76260;BME280;65076;52.362;6.588;2023-02-04T00:00:11;103157.63;;;9.12;71.49
76260;BME280;65076;52.362;6.588;2023-02-04T00:02:41;103155.91;;;8.99;72.96
76260;BME280;65076;52.362;6.588;2023-02-04T00:05:10;103154.97;;;9.06;72.96
76260;BME280;65076;52.362;6.588;2023-02-04T00:07:39;103161.28;;;9.02;72.88
76260;BME280;65076;52.362;6.588;2023-02-04T00:10:08;103154.94;;;9.12;73.57
76260;BME280;65076;52.362;6.588;2023-02-04T00:12:36;103154.91;;;9.16;72.48
76260;BME280;65076;52.362;6.588;2023-02-04T00:15:05;103163.22;;;8.72;74.28
76260;BME280;65076;52.362;6.588;2023-02-04T00:17:34;103159.56;;;8.88;73.23
76260;BME280;65076;52.362;6.588;2023-02-04T00:20:03;103165.88;;;8.84;73.54
76260;BME280;65076;52.362;6.588;2023-02-04T00:22:32;103161.44;;;8.65;73.81
76260;BME280;65076;52.362;6.588;2023-02-04T00:24:59;103167.69;;;8.76;73.99
76260;BME280;65076;52.362;6.588;2023-02-04T00:27:27;103169.44;;;8.94;73.40
76260;BME280;65076;52.362;6.588;2023-02-04T00:29:55;103171.28;;;8.83;74.06
76260;BME280;65076;52.362;6.588;2023-02-04T00:32:23;103174.81;;;8.97;72.82
76260;BME280;65076;52.362;6.588;2023-02-04T00:34:53;103174.84;;;8.88;74.12
76260;BME280;65076;52.362;6.588;2023-02-04T00:37:21;103179.31;;;8.97;74.01
76260;BME280;65076;52.362;6.588;2023-02-04T00:39:49;103177.50;;;9.05;72.44
76260;BME280;65076;52.362;6.588;2023-02-04T00:42:17;103189.97;;;9.28;73.07
76260;BME280;65076;52.362;6.588;2023-02-04T00:44:45;103190.03;;;9.16;73.23
76260;BME280;65076;52.362;6.588;2023-02-04T00:47:13;103195.50;;;8.95;73.31
76260;BME280;65076;52.362;6.588;2023-02-04T00:49:41;103200.78;;;9.28;72.91
76260;BME280;65076;52.362;6.588;2023-02-04T00:52:10;103197.28;;;9.07;73.01
76260;BME280;65076;52.362;6.588;2023-02-04T00:54:38;103200.94;;;8.92;73.47
76260;BME280;65076;52.362;6.588;2023-02-04T00:57:06;103209.94;;;8.92;73.18
76260;BME280;65076;52.362;6.588;2023-02-04T00:59:34;103202.72;;;8.98;73.10
76260;BME280;65076;52.362;6.588;2023-02-04T01:02:02;103212.63;;;8.91;73.65
76260;BME280;65076;52.362;6.588;2023-02-04T01:04:30;103218.09;;;8.77;74.54
76260;BME280;65076;52.362;6.588;2023-02-04T01:06:58;103219.91;;;8.66;74.84
76260;BME280;65076;52.362;6.588;2023-02-04T01:09:27;103224.34;;;8.88;74.14
76260;BME280;65076;52.362;6.588;2023-02-04T01:11:54;103235.09;;;9.04;73.18
76260;BME280;65076;52.362;6.588;2023-02-04T01:14:22;103230.59;;;9.01;72.76
76260;BME280;65076;52.362;6.588;2023-02-04T01:16:50;103232.41;;;8.96;73.12
76260;BME280;65076;52.362;6.588;2023-02-04T01:19:18;103241.41;;;9.01;74.42
76260;BME280;65076;52.362;6.588;2023-02-04T01:21:46;103236.84;;;9.17;72.72
76260;BME280;65076;52.362;6.588;2023-02-04T01:24:14;103233.28;;;9.06;73.93
76260;BME280;65076;52.362;6.588;2023-02-04T01:26:43;103241.44;;;8.92;73.86
76260;BME280;65076;52.362;6.588;2023-02-04T01:29:11;103231.53;;;8.99;73.22
76260;BME280;65076;52.362;6.588;2023-02-04T01:31:39;103236.88;;;9.09;73.77
76260;BME280;65076;52.362;6.588;2023-02-04T01:34:07;103235.88;;;9.34;72.45
76260;BME280;65076;52.362;6.588;2023-02-04T01:36:35;103236.91;;;9.02;72.84
76260;BME280;65076;52.362;6.588;2023-02-04T01:39:02;103236.78;;;9.29;72.18
76260;BME280;65076;52.362;6.588;2023-02-04T01:41:30;103237.72;;;9.22;72.32
76260;BME280;65076;52.362;6.588;2023-02-04T01:44:00;103238.69;;;9.06;73.14
76260;BME280;65076;52.362;6.588;2023-02-04T01:46:28;103244.97;;;9.06;73.05
76260;BME280;65076;52.362;6.588;2023-02-04T01:48:56;103241.34;;;9.18;72.52
76260;BME280;65076;52.362;6.588;2023-02-04T01:51:26;103248.53;;;9.22;73.65
76260;BME280;65076;52.362;6.588;2023-02-04T01:53:58;103257.56;;;9.21;73.47
76260;BME280;65076;52.362;6.588;2023-02-04T01:56:28;103251.19;;;9.32;73.18
76260;BME280;65076;52.362;6.588;2023-02-04T01:58:59;103254.91;;;9.03;74.46
76260;BME280;65076;52.362;6.588;2023-02-04T02:01:35;103261.22;;;9.00;74.24
76260;BME280;65076;52.362;6.588;2023-02-04T02:04:07;103268.44;;;9.00;73.86
76260;BME280;65076;52.362;6.588;2023-02-04T02:06:37;103262.97;;;9.13;73.33
76260;BME280;65076;52.362;6.588;2023-02-04T02:09:09;103265.69;;;9.09;73.68
76260;BME280;65076;52.362;6.588;2023-02-04T02:11:37;103271.09;;;9.07;73.60
76260;BME280;65076;52.362;6.588;2023-02-04T02:14:06;103262.97;;;9.13;73.57
76260;BME280;65076;52.362;6.588;2023-02-04T02:16:34;103277.44;;;8.85;74.67
76260;BME280;65076;52.362;6.588;2023-02-04T02:19:04;103268.34;;;9.19;72.79
76260;BME280;65076;52.362;6.588;2023-02-04T02:21:39;103271.16;;;8.89;74.38
76260;BME280;65076;52.362;6.588;2023-02-04T02:24:26;103281.84;;;9.16;73.40
76260;BME280;65076;52.362;6.588;2023-02-04T02:26:56;103276.50;;;9.09;73.57
76260;BME280;65076;52.362;6.588;2023-02-04T02:29:27;103278.34;;;8.93;74.56
76260;BME280;65076;52.362;6.588;2023-02-04T02:31:56;103282.84;;;8.89;74.28
76260;BME280;65076;52.362;6.588;2023-02-04T02:34:26;103286.41;;;9.08;73.25
76260;BME280;65076;52.362;6.588;2023-02-04T02:36:56;103276.53;;;9.00;73.89
76260;BME280;65076;52.362;6.588;2023-02-04T02:39:28;103277.44;;;8.99;74.03
76260;BME280;65076;52.362;6.588;2023-02-04T02:41:57;103284.53;;;9.24;73.12
76260;BME280;65076;52.362;6.588;2023-02-04T02:44:26;103282.75;;;9.17;72.90
76260;BME280;65076;52.362;6.588;2023-02-04T02:46:55;103282.78;;;9.14;74.31
76260;BME280;65076;52.362;6.588;2023-02-04T02:49:24;103277.34;;;9.18;73.43
76260;BME280;65076;52.362;6.588;2023-02-04T02:51:53;103285.41;;;9.27;73.07
76260;BME280;65076;52.362;6.588;2023-02-04T02:54:22;103289.88;;;9.45;72.80
76260;BME280;65076;52.362;6.588;2023-02-04T02:56:55;103285.25;;;9.65;71.75
76260;BME280;65076;52.362;6.588;2023-02-04T02:59:25;103287.97;;;9.65;71.25
76260;BME280;65076;52.362;6.588;2023-02-04T03:01:58;103306.13;;;9.36;72.93
76260;BME280;65076;52.362;6.588;2023-02-04T03:04:30;103296.19;;;9.40;71.73
76260;BME280;65076;52.362;6.588;2023-02-04T03:07:01;103298.00;;;9.41;71.78
76260;BME280;65076;52.362;6.588;2023-02-04T03:09:29;103297.00;;;9.54;71.41
76260;BME280;65076;52.362;6.588;2023-02-04T03:11:59;103306.03;;;9.54;71.75
76260;BME280;65076;52.362;6.588;2023-02-04T03:14:28;103305.22;;;9.34;72.82
76260;BME280;65076;52.362;6.588;2023-02-04T03:16:56;103309.75;;;9.26;73.47
76260;BME280;65076;52.362;6.588;2023-02-04T03:19:26;103313.25;;;9.57;72.16
76260;BME280;65076;52.362;6.588;2023-02-04T03:21:55;103309.72;;;9.33;72.69
76260;BME280;65076;52.362;6.588;2023-02-04T03:24:24;103309.78;;;9.18;73.31
76260;BME280;65076;52.362;6.588;2023-02-04T03:26:52;103311.53;;;9.27;73.13
76260;BME280;65076;52.362;6.588;2023-02-04T03:29:21;103315.13;;;9.32;72.45
76260;BME280;65076;52.362;6.588;2023-02-04T03:31:49;103321.53;;;8.75;73.94
76260;BME280;65076;52.362;6.588;2023-02-04T03:34:17;103329.59;;;9.20;73.95
76260;BME280;65076;52.362;6.588;2023-02-04T03:36:45;103333.97;;;9.50;72.08
76260;BME280;65076;52.362;6.588;2023-02-04T03:39:13;103325.97;;;9.17;73.22
76260;BME280;65076;52.362;6.588;2023-02-04T03:41:40;103331.38;;;9.17;73.03
76260;BME280;65076;52.362;6.588;2023-02-04T03:44:08;103331.41;;;9.09;73.33
76260;BME280;65076;52.362;6.588;2023-02-04T03:46:37;103334.09;;;9.09;73.22
76260;BME280;65076;52.362;6.588;2023-02-04T03:49:05;103333.22;;;9.01;74.06
76260;BME280;65076;52.362;6.588;2023-02-04T03:51:33;103338.59;;;9.01;74.89
76260;BME280;65076;52.362;6.588;2023-02-04T03:54:01;103337.72;;;8.79;75.41
76260;BME280;65076;52.362;6.588;2023-02-04T03:56:29;103333.19;;;9.18;73.57
76260;BME280;65076;52.362;6.588;2023-02-04T03:58:57;103321.47;;;9.20;73.79
76260;BME280;65076;52.362;6.588;2023-02-04T04:01:25;103337.69;;;9.16;73.31
76260;BME280;65076;52.362;6.588;2023-02-04T04:03:54;103329.56;;;9.22;73.49
76260;BME280;65076;52.362;6.588;2023-02-04T04:06:22;103340.44;;;8.93;75.03
76260;BME280;65076;52.362;6.588;2023-02-04T04:08:50;103335.88;;;9.25;73.96
76260;BME280;65076;52.362;6.588;2023-02-04T04:11:18;103342.16;;;9.23;74.02
76260;BME280;65076;52.362;6.588;2023-02-04T04:13:47;103348.44;;;9.32;73.58
76260;BME280;65076;52.362;6.588;2023-02-04T04:16:15;103345.78;;;9.23;73.69
76260;BME280;65076;52.362;6.588;2023-02-04T04:18:43;103348.34;;;9.63;71.99
76260;BME280;65076;52.362;6.588;2023-02-04T04:21:12;103345.72;;;9.46;72.57
76260;BME280;65076;52.362;6.588;2023-02-04T04:23:40;103346.56;;;9.56;72.23
76260;BME280;65076;52.362;6.588;2023-02-04T04:26:08;103359.06;;;9.83;71.92
76260;BME280;65076;52.362;6.588;2023-02-04T04:28:36;103366.28;;;9.81;71.85
76260;BME280;65076;52.362;6.588;2023-02-04T04:31:04;103363.63;;;9.71;72.17
76260;BME280;65076;52.362;6.588;2023-02-04T04:33:32;103366.31;;;9.76;72.00
76260;BME280;65076;52.362;6.588;2023-02-04T04:36:00;103365.34;;;9.86;71.46
76260;BME280;65076;52.362;6.588;2023-02-04T04:38:29;103369.84;;;9.90;71.92
76260;BME280;65076;52.362;6.588;2023-02-04T04:40:57;103368.91;;;9.96;70.90
76260;BME280;65076;52.362;6.588;2023-02-04T04:43:25;103373.44;;;9.92;70.98
76260;BME280;65076;52.362;6.588;2023-02-04T04:45:53;103377.06;;;9.85;71.04
76260;BME280;65076;52.362;6.588;2023-02-04T04:48:21;103383.44;;;9.69;70.96
76260;BME280;65076;52.362;6.588;2023-02-04T04:50:50;103388.94;;;9.49;72.65
76260;BME280;65076;52.362;6.588;2023-02-04T04:53:18;103383.50;;;9.57;72.26
76260;BME280;65076;52.362;6.588;2023-02-04T04:55:47;103395.22;;;9.57;72.05
76260;BME280;65076;52.362;6.588;2023-02-04T04:58:15;103392.59;;;9.16;72.63
76260;BME280;65076;52.362;6.588;2023-02-04T05:00:43;103397.97;;;9.47;72.57
76260;BME280;65076;52.362;6.588;2023-02-04T05:03:10;103400.63;;;9.50;72.28
76260;BME280;65076;52.362;6.588;2023-02-04T05:05:39;103399.66;;;9.73;70.94
76260;BME280;65076;52.362;6.588;2023-02-04T05:08:07;103405.19;;;9.35;72.19
76260;BME280;65076;52.362;6.588;2023-02-04T05:10:38;103414.13;;;9.59;71.66
76260;BME280;65076;52.362;6.588;2023-02-04T05:13:07;103421.34;;;9.54;71.05
76260;BME280;65076;52.362;6.588;2023-02-04T05:15:36;103419.53;;;9.60;71.61
76260;BME280;65076;52.362;6.588;2023-02-04T05:18:05;103417.78;;;9.38;72.23
76260;BME280;65076;52.362;6.588;2023-02-04T05:20:33;103411.44;;;9.42;72.91
76260;BME280;65076;52.362;6.588;2023-02-04T05:23:01;103416.00;;;9.31;72.55
76260;BME280;65076;52.362;6.588;2023-02-04T05:25:31;103417.78;;;9.46;72.31
76260;BME280;65076;52.362;6.588;2023-02-04T05:27:59;103433.94;;;9.53;71.95
76260;BME280;65076;52.362;6.588;2023-02-04T05:30:28;103427.69;;;9.39;72.94
76260;BME280;65076;52.362;6.588;2023-02-04T05:32:57;103434.03;;;9.12;72.47
76260;BME280;65076;52.362;6.588;2023-02-04T05:35:25;103430.41;;;9.25;73.48
76260;BME280;65076;52.362;6.588;2023-02-04T05:37:53;103426.78;;;9.37;72.64
76260;BME280;65076;52.362;6.588;2023-02-04T05:40:20;103425.84;;;9.55;71.87
76260;BME280;65076;52.362;6.588;2023-02-04T05:42:48;103426.81;;;9.17;73.05
76260;BME280;65076;52.362;6.588;2023-02-04T05:45:16;103422.28;;;9.34;72.78
76260;BME280;65076;52.362;6.588;2023-02-04T05:47:46;103420.53;;;9.26;72.10
76260;BME280;65076;52.362;6.588;2023-02-04T05:50:14;103425.91;;;9.35;72.36
76260;BME280;65076;52.362;6.588;2023-02-04T05:52:43;103428.59;;;9.35;72.82
76260;BME280;65076;52.362;6.588;2023-02-04T05:55:11;103420.53;;;9.26;73.98
76260;BME280;65076;52.362;6.588;2023-02-04T05:57:39;103419.53;;;9.53;72.38
76260;BME280;65076;52.362;6.588;2023-02-04T06:00:08;103436.72;;;9.08;73.96
76260;BME280;65076;52.362;6.588;2023-02-04T06:02:37;103435.72;;;9.69;72.18
76260;BME280;65076;52.362;6.588;2023-02-04T06:05:07;103435.75;;;9.56;70.98
76260;BME280;65076;52.362;6.588;2023-02-04T06:07:35;103438.41;;;9.75;70.93
76260;BME280;65076;52.362;6.588;2023-02-04T06:10:03;103442.88;;;9.84;70.70
76260;BME280;65076;52.362;6.588;2023-02-04T06:12:31;103443.88;;;9.57;70.92
76260;BME280;65076;52.362;6.588;2023-02-04T06:14:59;103455.50;;;9.85;71.30
76260;BME280;65076;52.362;6.588;2023-02-04T06:17:27;103447.41;;;9.77;71.18
76260;BME280;65076;52.362;6.588;2023-02-04T06:19:55;103450.16;;;9.64;70.89
76260;BME280;65076;52.362;6.588;2023-02-04T06:22:24;103454.56;;;9.95;70.64
76260;BME280;65076;52.362;6.588;2023-02-04T06:24:52;103454.59;;;9.94;70.61
76260;BME280;65076;52.362;6.588;2023-02-04T06:27:20;103463.63;;;9.88;69.79
76260;BME280;65076;52.362;6.588;2023-02-04T06:29:49;103471.78;;;9.64;70.82
76260;BME280;65076;52.362;6.588;2023-02-04T06:32:18;103478.03;;;9.81;71.39
76260;BME280;65076;52.362;6.588;2023-02-04T06:34:47;103480.72;;;9.84;71.01
76260;BME280;65076;52.362;6.588;2023-02-04T06:37:15;103481.63;;;9.88;70.11
76260;BME280;65076;52.362;6.588;2023-02-04T06:39:45;103470.00;;;9.61;70.95
76260;BME280;65076;52.362;6.588;2023-02-04T06:42:12;103480.81;;;9.45;72.48
76260;BME280;65076;52.362;6.588;2023-02-04T06:44:40;103477.22;;;9.49;71.94
76260;BME280;65076;52.362;6.588;2023-02-04T06:47:08;103478.94;;;9.74;71.92
76260;BME280;65076;52.362;6.588;2023-02-04T06:49:36;103478.03;;;9.89;70.40
76260;BME280;65076;52.362;6.588;2023-02-04T06:52:04;103478.94;;;9.83;70.75
76260;BME280;65076;52.362;6.588;2023-02-04T06:54:32;103484.31;;;9.94;70.35
76260;BME280;65076;52.362;6.588;2023-02-04T06:57:01;103493.31;;;9.97;69.89
76260;BME280;65076;52.362;6.588;2023-02-04T06:59:32;103492.41;;;9.97;70.21
76260;BME280;65076;52.362;6.588;2023-02-04T07:02:01;103495.16;;;9.88;71.44
76260;BME280;65076;52.362;6.588;2023-02-04T07:04:30;103498.72;;;10.02;70.41
76260;BME280;65076;52.362;6.588;2023-02-04T07:06:58;103500.53;;;9.97;70.03
76260;BME280;65076;52.362;6.588;2023-02-04T07:09:26;103505.00;;;10.05;70.28
76260;BME280;65076;52.362;6.588;2023-02-04T07:11:53;103500.59;;;9.74;70.62
76260;BME280;65076;52.362;6.588;2023-02-04T07:14:23;103508.72;;;9.66;71.20
76260;BME280;65076;52.362;6.588;2023-02-04T07:17:05;103503.31;;;9.78;71.05
76260;BME280;65076;52.362;6.588;2023-02-04T07:19:33;103508.75;;;9.38;72.90
76260;BME280;65076;52.362;6.588;2023-02-04T07:22:01;103521.38;;;9.10;73.10
76260;BME280;65076;52.362;6.588;2023-02-04T07:24:29;103515.06;;;9.23;72.66
76260;BME280;65076;52.362;6.588;2023-02-04T07:26:58;103536.63;;;8.86;74.43
76260;BME280;65076;52.362;6.588;2023-02-04T07:29:29;103532.16;;;9.02;74.31
76260;BME280;65076;52.362;6.588;2023-02-04T07:31:57;103542.03;;;8.83;74.81
76260;BME280;65076;52.362;6.588;2023-02-04T07:34:39;103533.97;;;9.27;73.50
76260;BME280;65076;52.362;6.588;2023-02-04T07:37:06;103543.88;;;9.65;72.55
76260;BME280;65076;52.362;6.588;2023-02-04T07:39:34;103542.09;;;9.40;71.27
76260;BME280;65076;52.362;6.588;2023-02-04T07:42:02;103549.19;;;8.72;74.82
76260;BME280;65076;52.362;6.588;2023-02-04T07:44:32;103547.47;;;9.33;73.16
76260;BME280;65076;52.362;6.588;2023-02-04T07:47:00;103551.97;;;9.60;72.40
76260;BME280;65076;52.362;6.588;2023-02-04T07:49:27;103556.47;;;9.72;72.02
76260;BME280;65076;52.362;6.588;2023-02-04T07:51:55;103566.34;;;9.90;71.56
76260;BME280;65076;52.362;6.588;2023-02-04T07:54:24;103560.03;;;9.95;70.72
76260;BME280;65076;52.362;6.588;2023-02-04T07:56:52;103562.75;;;9.89;71.12
76260;BME280;65076;52.362;6.588;2023-02-04T07:59:19;103577.19;;;9.81;70.63
76260;BME280;65076;52.362;6.588;2023-02-04T08:01:48;103571.78;;;9.79;71.04
76260;BME280;65076;52.362;6.588;2023-02-04T08:04:16;103571.81;;;9.41;71.72
76260;BME280;65076;52.362;6.588;2023-02-04T08:06:44;103580.81;;;9.49;73.65
76260;BME280;65076;52.362;6.588;2023-02-04T08:09:12;103587.13;;;9.59;72.80
76260;BME280;65076;52.362;6.588;2023-02-04T08:11:39;103589.81;;;9.77;72.36
76260;BME280;65076;52.362;6.588;2023-02-04T08:14:07;103588.88;;;9.96;72.75
76260;BME280;65076;52.362;6.588;2023-02-04T08:16:35;103596.09;;;10.03;71.96
76260;BME280;65076;52.362;6.588;2023-02-04T08:19:05;103604.25;;;9.94;71.98
76260;BME280;65076;52.362;6.588;2023-02-04T08:21:32;103597.00;;;9.98;71.17
76260;BME280;65076;52.362;6.588;2023-02-04T08:24:01;103604.22;;;10.09;71.11
76260;BME280;65076;52.362;6.588;2023-02-04T08:26:29;103599.69;;;9.96;71.00
76260;BME280;65076;52.362;6.588;2023-02-04T08:28:57;103608.72;;;9.98;72.33
76260;BME280;65076;52.362;6.588;2023-02-04T08:31:25;103610.53;;;9.90;72.50
76260;BME280;65076;52.362;6.588;2023-02-04T08:33:53;103609.63;;;9.87;72.43
76260;BME280;65076;52.362;6.588;2023-02-04T08:36:22;103611.44;;;9.63;72.70
76260;BME280;65076;52.362;6.588;2023-02-04T08:38:50;103606.94;;;9.47;73.01
76260;BME280;65076;52.362;6.588;2023-02-04T08:41:18;103612.34;;;9.58;74.21
76260;BME280;65076;52.362;6.588;2023-02-04T08:43:45;103614.13;;;9.89;72.80
76260;BME280;65076;52.362;6.588;2023-02-04T08:46:13;103605.13;;;9.79;73.10
76260;BME280;65076;52.362;6.588;2023-02-04T08:48:41;103607.81;;;10.08;71.62
76260;BME280;65076;52.362;6.588;2023-02-04T08:51:09;103614.13;;;10.18;71.37
76260;BME280;65076;52.362;6.588;2023-02-04T08:53:38;103620.47;;;9.82;72.93
76260;BME280;65076;52.362;6.588;2023-02-04T08:56:06;103615.06;;;9.67;73.78
76260;BME280;65076;52.362;6.588;2023-02-04T08:58:35;103618.63;;;10.17;71.93
76260;BME280;65076;52.362;6.588;2023-02-04T09:01:05;103619.53;;;10.06;71.90
76260;BME280;65076;52.362;6.588;2023-02-04T09:03:32;103622.25;;;9.88;72.96
76260;BME280;65076;52.362;6.588;2023-02-04T09:06:00;103628.56;;;9.96;72.71
76260;BME280;65076;52.362;6.588;2023-02-04T09:08:28;103633.97;;;9.87;73.26
76260;BME280;65076;52.362;6.588;2023-02-04T09:10:57;103628.56;;;10.17;72.03
76260;BME280;65076;52.362;6.588;2023-02-04T09:13:26;103632.16;;;9.90;72.53
76260;BME280;65076;52.362;6.588;2023-02-04T09:15:54;103627.69;;;9.78;72.28
76260;BME280;65076;52.362;6.588;2023-02-04T09:18:21;103635.78;;;10.18;72.10
76260;BME280;65076;52.362;6.588;2023-02-04T09:20:51;103632.06;;;10.52;71.82
76260;BME280;65076;52.362;6.588;2023-02-04T09:23:19;103645.66;;;10.27;71.28
76260;BME280;65076;52.362;6.588;2023-02-04T09:25:48;103644.78;;;10.17;71.37
76260;BME280;65076;52.362;6.588;2023-02-04T09:28:17;103641.00;;;10.80;70.44
76260;BME280;65076;52.362;6.588;2023-02-04T09:30:46;103646.25;;;11.14;68.83
76260;BME280;65076;52.362;6.588;2023-02-04T09:33:15;103650.16;;;10.15;71.10
76260;BME280;65076;52.362;6.588;2023-02-04T09:35:43;103640.16;;;10.65;70.01
76260;BME280;65076;52.362;6.588;2023-02-04T09:38:11;103638.44;;;10.45;71.44
76260;BME280;65076;52.362;6.588;2023-02-04T09:40:43;103649.19;;;10.67;69.72
76260;BME280;65076;52.362;6.588;2023-02-04T09:43:21;103651.13;;;10.19;71.53
76260;BME280;65076;52.362;6.588;2023-02-04T09:45:52;103651.03;;;10.55;70.30
76260;BME280;65076;52.362;6.588;2023-02-04T09:48:21;103652.88;;;10.11;71.09
76260;BME280;65076;52.362;6.588;2023-02-04T09:50:51;103655.63;;;10.17;71.03
76260;BME280;65076;52.362;6.588;2023-02-04T09:53:24;103661.88;;;10.37;71.92
76260;BME280;65076;52.362;6.588;2023-02-04T09:55:52;103661.88;;;10.48;70.91
76260;BME280;65076;52.362;6.588;2023-02-04T09:58:22;103657.41;;;10.07;70.86
76260;BME280;65076;52.362;6.588;2023-02-04T10:01:08;103667.19;;;10.74;70.16
76260;BME280;65076;52.362;6.588;2023-02-04T10:03:41;103660.84;;;10.87;69.41
76260;BME280;65076;52.362;6.588;2023-02-04T10:06:13;103669.53;;;11.46;67.40
76260;BME280;65076;52.362;6.588;2023-02-04T10:08:43;103681.00;;;11.88;65.22
76260;BME280;65076;52.362;6.588;2023-02-04T10:11:13;103676.03;;;12.37;64.79
76260;BME280;65076;52.362;6.588;2023-02-04T10:13:46;103687.59;;;11.47;65.72
76260;BME280;65076;52.362;6.588;2023-02-04T10:16:19;103688.66;;;12.44;63.50
76260;BME280;65076;52.362;6.588;2023-02-04T10:18:56;103695.66;;;12.63;62.16
76260;BME280;65076;52.362;6.588;2023-02-04T10:21:27;103683.44;;;13.01;62.08
76260;BME280;65076;52.362;6.588;2023-02-04T10:23:58;103687.50;;;12.65;61.33
76260;BME280;65076;52.362;6.588;2023-02-04T10:26:30;103687.78;;;12.38;63.72
76260;BME280;65076;52.362;6.588;2023-02-04T10:29:02;103689.38;;;12.57;61.42
76260;BME280;65076;52.362;6.588;2023-02-04T10:31:37;103684.44;;;12.94;61.16
76260;BME280;65076;52.362;6.588;2023-02-04T10:34:10;103688.94;;;12.11;63.11
76260;BME280;65076;52.362;6.588;2023-02-04T10:36:43;103694.88;;;12.55;62.05
76260;BME280;65076;52.362;6.588;2023-02-04T10:39:14;103693.97;;;12.55;61.91
76260;BME280;65076;52.362;6.588;2023-02-04T10:41:45;103692.50;;;13.00;60.75
76260;BME280;65076;52.362;6.588;2023-02-04T10:44:23;103696.00;;;13.09;60.49
76260;BME280;65076;52.362;6.588;2023-02-04T10:46:58;103691.66;;;12.96;60.53
76260;BME280;65076;52.362;6.588;2023-02-04T10:49:26;103701.31;;;12.41;62.39
76260;BME280;65076;52.362;6.588;2023-02-04T10:51:55;103699.84;;;12.93;60.65
76260;BME280;65076;52.362;6.588;2023-02-04T10:54:25;103707.09;;;12.09;63.73
76260;BME280;65076;52.362;6.588;2023-02-04T10:57:05;103712.84;;;11.60;64.90
76260;BME280;65076;52.362;6.588;2023-02-04T10:59:41;103710.16;;;11.53;65.36
76260;BME280;65076;52.362;6.588;2023-02-04T11:02:35;103715.09;;;10.67;66.53
76260;BME280;65076;52.362;6.588;2023-02-04T11:05:14;103707.81;;;10.80;67.69
76260;BME280;65076;52.362;6.588;2023-02-04T11:07:44;103713.94;;;11.30;66.54
76260;BME280;65076;52.362;6.588;2023-02-04T11:10:14;103716.88;;;10.57;68.41
76260;BME280;65076;52.362;6.588;2023-02-04T11:12:46;103710.22;;;11.45;66.19
76260;BME280;65076;52.362;6.588;2023-02-04T11:15:39;103712.81;;;12.68;61.44
76260;BME280;65076;52.362;6.588;2023-02-04T11:18:26;103712.84;;;12.65;61.43
76260;BME280;65076;52.362;6.588;2023-02-04T11:20:59;103712.63;;;12.84;60.41
76260;BME280;65076;52.362;6.588;2023-02-04T11:23:35;103713.63;;;13.48;57.70
76260;BME280;65076;52.362;6.588;2023-02-04T11:26:09;103709.59;;;13.12;58.86
76260;BME280;65076;52.362;6.588;2023-02-04T11:28:49;103707.97;;;12.09;62.06
76260;BME280;65076;52.362;6.588;2023-02-04T11:31:43;103706.22;;;12.01;63.47
76260;BME280;65076;52.362;6.588;2023-02-04T11:34:27;103698.31;;;11.75;63.81
76260;BME280;65076;52.362;6.588;2023-02-04T11:37:15;103696.63;;;11.51;64.52
76260;BME280;65076;52.362;6.588;2023-02-04T11:39:46;103692.38;;;11.03;65.26
76260;BME280;65076;52.362;6.588;2023-02-04T11:42:19;103691.56;;;10.77;66.17
76260;BME280;65076;52.362;6.588;2023-02-04T11:44:51;103696.94;;;10.84;66.79
76260;BME280;65076;52.362;6.588;2023-02-04T11:47:24;103698.66;;;11.14;65.74
76260;BME280;65076;52.362;6.588;2023-02-04T11:49:56;103705.03;;;10.98;66.06
76260;BME280;65076;52.362;6.588;2023-02-04T11:52:26;103702.38;;;10.87;66.18
76260;BME280;65076;52.362;6.588;2023-02-04T11:54:55;103706.94;;;10.66;67.20
76260;BME280;65076;52.362;6.588;2023-02-04T11:57:39;103705.88;;;11.11;66.08
76260;BME280;65076;52.362;6.588;2023-02-04T12:00:12;103700.59;;;10.77;65.81
76260;BME280;65076;52.362;6.588;2023-02-04T12:02:46;103708.78;;;10.53;67.32
76260;BME280;65076;52.362;6.588;2023-02-04T12:05:17;103719.53;;;10.82;66.41
76260;BME280;65076;52.362;6.588;2023-02-04T12:07:47;103714.09;;;10.86;65.90
76260;BME280;65076;52.362;6.588;2023-02-04T12:10:22;103707.69;;;11.12;65.45
76260;BME280;65076;52.362;6.588;2023-02-04T12:12:54;103706.84;;;10.96;65.64
76260;BME280;65076;52.362;6.588;2023-02-04T12:15:29;103710.53;;;10.83;66.06
76260;BME280;65076;52.362;6.588;2023-02-04T12:18:04;103702.31;;;11.04;65.18
76260;BME280;65076;52.362;6.588;2023-02-04T12:20:34;103702.47;;;10.37;65.67
76260;BME280;65076;52.362;6.588;2023-02-04T12:23:02;103702.91;;;11.58;64.01
76260;BME280;65076;52.362;6.588;2023-02-04T12:25:31;103703.88;;;11.49;63.53
76260;BME280;65076;52.362;6.588;2023-02-04T12:27:59;103697.28;;;11.88;62.23
76260;BME280;65076;52.362;6.588;2023-02-04T12:30:27;103696.50;;;11.77;61.44
76260;BME280;65076;52.362;6.588;2023-02-04T12:32:55;103700.09;;;11.77;62.19
76260;BME280;65076;52.362;6.588;2023-02-04T12:35:24;103698.06;;;12.04;61.27
76260;BME280;65076;52.362;6.588;2023-02-04T12:37:52;103708.09;;;11.97;61.83
76260;BME280;65076;52.362;6.588;2023-02-04T12:40:20;103706.09;;;12.19;60.86
76260;BME280;65076;52.362;6.588;2023-02-04T12:42:48;103702.91;;;11.61;61.63
76260;BME280;65076;52.362;6.588;2023-02-04T12:45:17;103700.56;;;12.29;59.45
76260;BME280;65076;52.362;6.588;2023-02-04T12:47:45;103701.25;;;13.29;57.12
76260;BME280;65076;52.362;6.588;2023-02-04T12:50:15;103720.03;;;11.64;60.68
76260;BME280;65076;52.362;6.588;2023-02-04T12:52:50;103709.88;;;13.57;56.04
76260;BME280;65076;52.362;6.588;2023-02-04T12:55:19;103704.69;;;13.40;56.41
76260;BME280;65076;52.362;6.588;2023-02-04T12:57:48;103705.91;;;13.18;57.44
76260;BME280;65076;52.362;6.588;2023-02-04T13:00:18;103705.41;;;13.54;56.31
76260;BME280;65076;52.362;6.588;2023-02-04T13:02:47;103697.84;;;14.27;54.36
76260;BME280;65076;52.362;6.588;2023-02-04T13:05:16;103699.22;;;13.40;55.71
76260;BME280;65076;52.362;6.588;2023-02-04T13:07:44;103703.75;;;13.44;55.30
76260;BME280;65076;52.362;6.588;2023-02-04T13:10:13;103697.41;;;12.69;56.22